Time;durP1;ratioP1;P1;durP2;ratioP2;P2;SDS_P1;SDS_P2;PMS_P1;PMS_P2;Temp;Humidity;BMP_temperature;BMP_pressure;BME280_temperature;BME280_humidity;BME280_pressure;Samples;Min_cycle;Max_cycle;Signal;HPM_P1;HPM_P2
2022/05/04 00:01:15;;;;;;;14.77;6.47;;;;;;;6.55;100.00;101878.13;5299999;27;20040;-76
2022/05/04 00:03:46;;;;;;;16.00;5.68;;;;;;;6.53;100.00;101888.81;5297781;28;20041;-76
2022/05/04 00:06:17;;;;;;;16.25;6.70;;;;;;;6.47;100.00;101880.38;5292678;28;20554;-76
2022/05/04 00:08:49;;;;;;;14.05;6.75;;;;;;;6.44;100.00;101884.06;5294128;28;20024;-77
2022/05/04 00:11:20;;;;;;;16.25;7.13;;;;;;;6.21;100.00;101877.47;5291058;28;20045;-77
2022/05/04 00:13:51;;;;;;;11.13;6.10;;;;;;;6.12;100.00;101880.63;5291640;28;20039;-76
2022/05/04 00:16:23;;;;;;;13.80;7.30;;;;;;;6.06;100.00;101879.19;5296698;28;20402;-77
2022/05/04 00:18:54;;;;;;;16.65;6.93;;;;;;;5.99;100.00;101880.50;5293401;28;20024;-77
2022/05/04 00:21:25;;;;;;;19.25;7.20;;;;;;;5.86;100.00;101878.50;5295560;28;20086;-76
2022/05/04 00:23:57;;;;;;;14.73;7.70;;;;;;;5.82;100.00;101890.22;5290267;28;20028;-76
2022/05/04 00:26:28;;;;;;;16.05;6.28;;;;;;;5.80;100.00;101891.22;5287791;28;20049;-76
2022/05/04 00:28:59;;;;;;;16.90;7.10;;;;;;;5.71;100.00;101878.50;5295040;28;20088;-76
2022/05/04 00:31:30;;;;;;;12.27;7.05;;;;;;;5.78;100.00;101880.72;5291951;28;20202;-76
2022/05/04 00:34:02;;;;;;;13.35;6.78;;;;;;;6.00;100.00;101883.06;5289633;28;20033;-76
2022/05/04 00:36:33;;;;;;;13.23;7.57;;;;;;;6.05;100.00;101882.81;5286707;28;20688;-76
2022/05/04 00:39:04;;;;;;;14.55;7.20;;;;;;;6.27;100.00;101885.06;5295301;28;20020;-76
2022/05/04 00:41:36;;;;;;;16.23;8.05;;;;;;;6.30;100.00;101889.34;5291582;28;20118;-76
2022/05/04 00:44:07;;;;;;;14.30;8.45;;;;;;;6.40;100.00;101882.56;5292878;28;20061;-76
2022/05/04 00:46:38;;;;;;;15.45;7.93;;;;;;;6.56;100.00;101883.34;5292713;27;20052;-76
2022/05/04 00:49:10;;;;;;;16.75;7.63;;;;;;;6.63;100.00;101875.91;5292803;28;20045;-76
2022/05/04 00:51:41;;;;;;;15.80;8.23;;;;;;;6.66;100.00;101878.34;5293192;28;20537;-76
2022/05/04 00:54:12;;;;;;;13.45;8.13;;;;;;;6.79;100.00;101887.28;5292061;28;20057;-76
2022/05/04 00:56:44;;;;;;;15.82;8.32;;;;;;;6.87;100.00;101875.34;5289590;28;20147;-76
2022/05/04 00:59:15;;;;;;;13.50;7.07;;;;;;;6.97;100.00;101877.34;5296036;27;20121;-76
2022/05/04 01:01:47;;;;;;;14.20;7.60;;;;;;;6.99;100.00;101880.78;5292271;28;20093;-76
2022/05/04 01:04:18;;;;;;;15.57;7.25;;;;;;;7.06;100.00;101875.94;5285726;27;20029;-76
2022/05/04 01:06:50;;;;;;;13.80;7.68;;;;;;;7.09;100.00;101872.25;5291969;28;20419;-76
2022/05/04 01:09:21;;;;;;;14.30;7.22;;;;;;;7.14;100.00;101859.56;5289927;28;20059;-76
2022/05/04 01:11:52;;;;;;;14.57;7.20;;;;;;;7.16;100.00;101869.09;5291194;27;20094;-76
2022/05/04 01:14:24;;;;;;;13.73;6.50;;;;;;;7.25;100.00;101866.84;5292589;28;20028;-76
2022/05/04 01:16:55;;;;;;;17.35;7.20;;;;;;;7.29;100.00;101863.03;5290378;28;20039;-76
2022/05/04 01:19:26;;;;;;;14.13;7.35;;;;;;;7.32;100.00;101870.81;5295732;28;20059;-76
2022/05/04 01:21:58;;;;;;;14.52;6.80;;;;;;;7.45;100.00;101876.19;5293651;28;22362;-76
2022/05/04 01:24:29;;;;;;;11.07;6.97;;;;;;;7.31;100.00;101874.41;5288939;28;20400;-76
2022/05/04 01:27:00;;;;;;;20.00;7.63;;;;;;;7.45;100.00;101871.75;5293723;28;20040;-76
2022/05/04 01:29:32;;;;;;;13.50;7.15;;;;;;;7.53;100.00;101871.25;5289082;28;20025;-76
2022/05/04 01:32:04;;;;;;;15.23;6.22;;;;;;;7.60;100.00;101874.38;5298567;27;20047;-76
2022/05/04 01:34:35;;;;;;;15.43;6.88;;;;;;;7.64;100.00;101868.75;5304557;27;20028;-76
2022/05/04 01:37:06;;;;;;;12.00;5.53;;;;;;;7.68;100.00;101864.97;5291485;28;20028;-76
2022/05/04 01:39:37;;;;;;;9.68;6.07;;;;;;;7.69;100.00;101869.31;5293595;28;20068;-76
2022/05/04 01:42:16;;;;;;;13.25;6.47;;;;;;;7.70;100.00;101871.03;5292264;28;23047;-76
2022/05/04 01:44:47;;;;;;;11.85;5.95;;;;;;;7.72;100.00;101863.81;5287580;28;20037;-76
2022/05/04 01:47:19;;;;;;;13.95;5.90;;;;;;;7.82;100.00;101872.06;5296100;28;20058;-76
2022/05/04 01:49:50;;;;;;;12.18;6.05;;;;;;;7.82;100.00;101869.41;5297233;28;20466;-76
2022/05/04 01:52:22;;;;;;;11.95;5.13;;;;;;;7.92;100.00;101866.97;5298422;27;20040;-76
2022/05/04 01:54:53;;;;;;;9.52;5.60;;;;;;;7.83;100.00;101864.94;5277770;28;20033;-76
2022/05/04 01:57:24;;;;;;;13.57;6.47;;;;;;;7.86;100.00;101870.91;5301687;27;20044;-76
2022/05/04 01:59:55;;;;;;;12.85;5.75;;;;;;;7.91;100.00;101862.63;5291364;28;20111;-77
2022/05/04 02:02:27;;;;;;;13.52;5.40;;;;;;;7.89;100.00;101861.91;5291550;28;20052;-77
2022/05/04 02:04:59;;;;;;;9.07;5.60;;;;;;;7.86;100.00;101851.47;5288985;28;20025;-76
2022/05/04 02:07:35;;;;;;;13.68;6.40;;;;;;;7.88;100.00;101858.38;5294203;28;20044;-76
2022/05/04 02:10:07;;;;;;;10.90;5.38;;;;;;;7.88;100.00;101858.38;5290116;28;20028;-76
2022/05/04 02:12:38;;;;;;;11.93;5.93;;;;;;;7.87;100.00;101855.81;5292684;28;20051;-76
2022/05/04 02:15:11;;;;;;;14.05;5.88;;;;;;;7.80;100.00;101858.03;5286740;28;20865;-76
2022/05/04 02:17:42;;;;;;;13.15;5.97;;;;;;;7.88;100.00;101863.69;5294701;28;20028;-76
2022/05/04 02:20:14;;;;;;;17.23;5.95;;;;;;;7.88;100.00;101861.03;5286072;28;20044;-76
2022/05/04 02:22:45;;;;;;;13.85;6.47;;;;;;;7.87;100.00;101858.47;5304431;27;20348;-76
2022/05/04 02:25:16;;;;;;;13.18;5.97;;;;;;;7.81;100.00;101854.41;5287019;28;20024;-76
2022/05/04 02:27:47;;;;;;;14.27;6.35;;;;;;;7.83;100.00;101854.31;5292907;28;20041;-76
2022/05/04 02:30:19;;;;;;;13.40;6.60;;;;;;;7.79;100.00;101853.66;5283663;28;20021;-76
2022/05/04 02:32:50;;;;;;;12.38;5.40;;;;;;;7.81;100.00;101854.41;5284519;28;20361;-76
2022/05/04 02:38:11;;;;;;;13.57;5.65;;;;;;;7.74;100.00;101848.63;5288926;28;20447;-77
2022/05/04 02:40:42;;;;;;;10.38;6.05;;;;;;;7.69;100.00;101849.88;5292519;28;20125;-76
2022/05/04 02:43:14;;;;;;;11.85;6.13;;;;;;;7.67;100.00;101855.28;5295945;28;20086;-76
2022/05/04 02:45:45;;;;;;;10.48;6.00;;;;;;;7.69;100.00;101856.03;5291922;28;20167;-77
2022/05/04 02:48:17;;;;;;;11.20;6.30;;;;;;;7.65;100.00;101851.03;5296266;28;20036;-76
2022/05/04 02:50:48;;;;;;;16.85;6.53;;;;;;;7.65;100.00;101846.56;5288915;28;20025;-76
2022/05/04 02:53:19;;;;;;;13.15;5.95;;;;;;;7.63;100.00;101850.31;5292772;28;20075;-77
2022/05/04 02:55:50;;;;;;;14.55;6.78;;;;;;;7.64;100.00;101851.97;5287365;28;20090;-76
2022/05/04 02:58:22;;;;;;;14.57;5.70;;;;;;;7.62;100.00;101846.78;5286489;28;20441;-76
2022/05/04 03:00:53;;;;;;;11.98;5.93;;;;;;;7.55;100.00;101843.66;5293470;28;20051;-76
2022/05/04 03:03:25;;;;;;;14.88;6.55;;;;;;;7.51;100.00;101849.28;5292160;28;20039;-76
2022/05/04 03:05:56;;;;;;;11.80;5.72;;;;;;;7.48;100.00;101839.69;5297618;27;20103;-76
2022/05/04 03:08:27;;;;;;;13.38;6.57;;;;;;;7.49;100.00;101835.25;5293731;28;20083;-76
2022/05/04 03:13:48;;;;;;;14.25;7.03;;;;;;;7.31;100.00;101826.63;5292126;28;20486;-76
2022/05/04 03:16:19;;;;;;;10.45;5.75;;;;;;;7.31;100.00;101829.28;5296251;28;20052;-76
2022/05/04 03:18:51;;;;;;;18.10;6.40;;;;;;;7.31;100.00;101832.81;5290938;28;20076;-76
2022/05/04 03:21:22;;;;;;;14.20;6.88;;;;;;;7.30;100.00;101828.44;5295584;28;20028;-77
2022/05/04 03:23:53;;;;;;;23.73;7.28;;;;;;;7.30;100.00;101830.25;5293203;28;35941;-76
2022/05/04 03:26:24;;;;;;;11.63;5.22;;;;;;;7.31;100.00;101830.16;5293966;27;20047;-76
2022/05/04 03:28:56;;;;;;;13.38;6.15;;;;;;;7.19;100.00;101830.94;5289440;28;20120;-76
2022/05/04 03:31:27;;;;;;;13.05;6.20;;;;;;;7.18;100.00;101823.91;5293958;27;20027;-76
2022/05/04 03:33:59;;;;;;;10.38;5.22;;;;;;;7.13;100.00;101826.00;5296962;28;20028;-76
2022/05/04 03:36:30;;;;;;;13.07;6.40;;;;;;;7.03;100.00;101827.50;5293649;27;20465;-76
2022/05/04 03:39:03;;;;;;;15.50;5.82;;;;;;;7.00;100.00;101828.56;5294293;27;20025;-76
2022/05/04 03:41:35;;;;;;;11.50;6.15;;;;;;;6.91;100.00;101835.28;5292989;28;20060;-76
2022/05/04 03:44:06;;;;;;;13.02;6.07;;;;;;;6.87;100.00;101835.56;5295145;28;20108;-76
2022/05/04 03:46:46;;;;;;;13.95;6.82;;;;;;;6.81;100.00;101837.66;5293379;28;20025;-76
2022/05/04 03:49:19;;;;;;;10.75;6.30;;;;;;;6.70;100.00;101824.19;5293104;28;20035;-76
2022/05/04 03:51:51;;;;;;;14.32;6.35;;;;;;;6.70;100.00;101833.97;5292856;28;20048;-76
2022/05/04 03:54:23;;;;;;;17.80;6.53;;;;;;;6.60;100.00;101833.66;5295844;28;20035;-76
2022/05/04 03:56:54;;;;;;;16.00;6.78;;;;;;;6.57;100.00;101825.88;5296393;28;20020;-76
2022/05/04 03:59:25;;;;;;;13.82;5.57;;;;;;;6.71;100.00;101836.50;5310532;27;20031;-76
2022/05/04 04:01:57;;;;;;;13.60;6.90;;;;;;;6.60;100.00;101834.50;5297935;28;20025;-76
2022/05/04 04:04:29;;;;;;;17.58;7.05;;;;;;;6.46;100.00;101841.59;5299054;27;20183;-77
2022/05/04 04:07:00;;;;;;;13.95;6.00;;;;;;;6.54;100.00;101836.66;5297616;28;20124;-76
2022/05/04 04:09:31;;;;;;;16.95;7.28;;;;;;;6.49;100.00;101834.31;5297276;28;20166;-76
2022/05/04 04:12:03;;;;;;;10.93;5.63;;;;;;;6.53;100.00;101835.81;5299869;27;20043;-76
2022/05/04 04:14:34;;;;;;;12.98;5.68;;;;;;;6.55;100.00;101838.38;5295346;27;20442;-76
2022/05/04 04:17:06;;;;;;;15.57;6.97;;;;;;;6.52;100.00;101831.47;5298022;28;20028;-76
2022/05/04 04:19:37;;;;;;;11.65;6.22;;;;;;;6.51;100.00;101832.41;5294170;28;20106;-76
2022/05/04 04:22:08;;;;;;;11.13;6.18;;;;;;;6.59;100.00;101834.59;5299209;28;20039;-76
2022/05/04 04:24:39;;;;;;;11.50;5.90;;;;;;;6.54;100.00;101831.34;5299563;28;20025;-76
2022/05/04 04:27:11;;;;;;;19.08;7.95;;;;;;;6.52;100.00;101828.81;5278321;28;20045;-76
2022/05/04 04:29:42;;;;;;;17.45;6.47;;;;;;;6.50;100.00;101836.00;5308231;27;20124;-76
2022/05/04 04:32:13;;;;;;;16.83;7.30;;;;;;;6.49;100.00;101831.66;5295178;28;20024;-76
2022/05/04 04:34:44;;;;;;;13.50;6.63;;;;;;;6.38;100.00;101839.38;5309133;27;20024;-76
2022/05/04 04:37:16;;;;;;;13.90;6.53;;;;;;;6.50;100.00;101841.28;5297747;28;20032;-76
2022/05/04 04:39:47;;;;;;;13.80;7.13;;;;;;;6.47;100.00;101843.28;5296389;28;20387;-76
2022/05/04 04:42:18;;;;;;;15.40;6.53;;;;;;;6.40;100.00;101848.09;5297375;27;20068;-76
2022/05/04 04:44:50;;;;;;;13.07;6.22;;;;;;;6.43;100.00;101847.91;5297149;28;20024;-76
2022/05/04 04:47:21;;;;;;;11.93;6.35;;;;;;;6.47;100.00;101846.81;5300006;28;20021;-76
2022/05/04 04:49:59;;;;;;;14.00;6.88;;;;;;;6.61;100.00;101853.94;5295680;28;20135;-76
2022/05/04 04:52:30;;;;;;;20.98;7.85;;;;;;;6.50;100.00;101845.75;5292121;28;20036;-76
2022/05/04 04:55:01;;;;;;;12.25;6.53;;;;;;;6.69;100.00;101853.47;5296779;27;20374;-76
2022/05/04 04:57:33;;;;;;;13.05;6.60;;;;;;;6.71;100.00;101841.78;5292634;28;20061;-76
2022/05/04 05:00:06;;;;;;;18.13;6.90;;;;;;;6.78;100.00;101840.50;5286873;28;20037;-76
2022/05/04 05:02:37;;;;;;;13.70;6.80;;;;;;;6.66;100.00;101840.38;5289168;27;20028;-76
2022/05/04 05:05:08;;;;;;;17.20;7.45;;;;;;;6.58;100.00;101844.34;5289788;28;21238;-76
2022/05/04 05:07:40;;;;;;;15.48;6.90;;;;;;;6.66;100.00;101846.53;5295455;28;20122;-76
2022/05/04 05:10:11;;;;;;;11.70;6.90;;;;;;;6.69;100.00;101845.50;5294668;28;20032;-76
2022/05/04 05:12:42;;;;;;;21.63;8.80;;;;;;;6.63;100.00;101847.56;5291270;27;20104;-76
2022/05/04 05:18:04;;;;;;;14.13;8.30;;;;;;;6.56;100.00;101859.50;5293694;28;20056;-76
2022/05/04 05:20:35;;;;;;;20.20;7.95;;;;;;;6.62;100.00;101851.16;5288657;28;20163;-76
2022/05/04 05:23:06;;;;;;;22.15;7.82;;;;;;;6.86;100.00;101853.28;5294626;28;20151;-76
2022/05/04 05:25:38;;;;;;;16.48;7.57;;;;;;;6.77;100.00;101862.66;5304220;28;20063;-76
2022/05/04 05:28:09;;;;;;;17.75;8.02;;;;;;;7.02;100.00;101853.19;5313430;27;20377;-76
2022/05/04 05:30:42;;;;;;;15.18;7.18;;;;;;;7.18;100.00;101851.28;5303826;27;20046;-76
2022/05/04 05:33:14;;;;;;;15.63;6.97;;;;;;;7.50;100.00;101851.09;5291253;27;20033;-76
2022/05/04 05:35:45;;;;;;;16.90;7.15;;;;;;;7.60;100.00;101853.97;5282310;28;20025;-77
2022/05/04 05:38:17;;;;;;;20.05;6.80;;;;;;;7.78;100.00;101851.09;5280504;28;20017;-76
2022/05/04 05:40:48;;;;;;;14.73;6.60;;;;;;;8.05;100.00;101843.97;5307766;28;20420;-76
2022/05/04 05:43:19;;;;;;;12.93;6.78;;;;;;;8.44;100.00;101839.63;5286891;28;20037;-76
2022/05/04 05:45:50;;;;;;;17.70;6.25;;;;;;;8.67;100.00;101839.88;5291364;28;20033;-76
2022/05/04 05:48:22;;;;;;;16.35;6.38;;;;;;;8.92;100.00;101848.81;5294537;28;20039;-76
2022/05/04 05:50:53;;;;;;;15.27;6.35;;;;;;;9.15;100.00;101841.84;5294895;28;20083;-76
2022/05/04 05:53:24;;;;;;;16.48;6.40;;;;;;;9.38;100.00;101849.06;5284709;28;20402;-76
2022/05/04 05:55:55;;;;;;;18.70;6.15;;;;;;;9.68;100.00;101853.16;5294868;28;20020;-76
2022/05/04 05:58:27;;;;;;;17.40;6.20;;;;;;;9.96;100.00;101851.13;5286284;28;20079;-76
2022/05/04 06:00:58;;;;;;;19.83;7.40;;;;;;;10.50;100.00;101855.09;5295251;28;20035;-76
2022/05/04 06:03:29;;;;;;;15.73;5.75;;;;;;;10.67;100.00;101849.31;5292384;28;20372;-77
2022/05/04 06:06:01;;;;;;;12.48;6.10;;;;;;;11.10;100.00;101853.13;5299273;28;20419;-77
2022/05/04 06:08:32;;;;;;;13.43;5.55;;;;;;;11.14;100.00;101859.91;5303031;28;20031;-77
2022/05/04 06:11:05;;;;;;;11.60;5.80;;;;;;;11.52;100.00;101850.69;5297551;28;20028;-77
2022/05/04 06:13:36;;;;;;;14.38;5.68;;;;;;;11.70;100.00;101851.84;5282418;28;20125;-77
2022/05/04 06:16:07;;;;;;;14.20;5.95;;;;;;;12.39;100.00;101853.31;5302565;28;20025;-77
2022/05/04 06:18:38;;;;;;;12.55;4.95;;;;;;;12.34;100.00;101863.56;5300152;28;20035;-77
2022/05/04 06:21:10;;;;;;;12.57;5.80;;;;;;;12.45;100.00;101855.47;5289976;28;20036;-74
2022/05/04 06:23:41;;;;;;;12.40;5.13;;;;;;;12.94;100.00;101868.28;5303150;28;20036;-74
2022/05/04 06:26:13;;;;;;;14.40;5.65;;;;;;;13.27;100.00;101863.66;5302847;28;20025;-74
2022/05/04 06:28:44;;;;;;;12.68;5.20;;;;;;;13.47;100.00;101861.94;5301623;28;20021;-75
2022/05/04 06:34:10;;;;;;;12.48;5.07;;;;;;;13.97;100.00;101854.69;5302964;28;20056;-75
2022/05/04 06:36:42;;;;;;;11.95;5.05;;;;;;;13.73;100.00;101859.59;5303042;28;20029;-75
2022/05/04 06:39:13;;;;;;;11.57;4.43;;;;;;;14.33;100.00;101870.22;5302036;28;20437;-75
2022/05/04 06:41:45;;;;;;;14.45;5.18;;;;;;;14.59;100.00;101865.16;5306906;28;20033;-75
2022/05/04 06:44:16;;;;;;;12.43;4.82;;;;;;;15.10;100.00;101866.56;5306063;28;20033;-75
2022/05/04 06:46:48;;;;;;;8.68;4.03;;;;;;;15.28;100.00;101873.84;5306167;28;20013;-75
2022/05/04 06:49:19;;;;;;;11.55;4.88;;;;;;;14.97;100.00;101867.88;5285507;28;20021;-75
2022/05/04 06:51:51;;;;;;;9.48;4.53;;;;;;;15.41;100.00;101878.88;5285770;28;20481;-75
2022/05/04 06:54:22;;;;;;;12.82;4.03;;;;;;;15.24;100.00;101870.59;5284895;28;21187;-76
2022/05/04 06:56:53;;;;;;;13.73;4.68;;;;;;;15.12;100.00;101869.09;5285616;28;20040;-76
2022/05/04 06:59:26;;;;;;;11.85;5.25;;;;;;;15.40;100.00;101869.97;5285572;28;20021;-76
2022/05/04 07:01:58;;;;;;;12.27;4.65;;;;;;;15.40;100.00;101866.44;5288501;28;20438;-76
2022/05/04 07:04:29;;;;;;;9.23;4.57;;;;;;;15.56;100.00;101865.78;5306698;28;20118;-76
2022/05/04 07:07:00;;;;;;;16.10;4.97;;;;;;;16.11;98.21;101854.09;5306168;28;20017;-76
2022/05/04 07:09:33;;;;;;;15.90;5.13;;;;;;;16.40;94.70;101867.31;5306895;28;20031;-76
2022/05/04 07:12:05;;;;;;;11.07;4.45;;;;;;;16.93;94.09;101866.34;5305880;28;20166;-75
2022/05/04 07:14:36;;;;;;;12.50;4.88;;;;;;;17.24;86.21;101859.63;5317075;27;20108;-76
2022/05/04 07:17:07;;;;;;;12.48;4.47;;;;;;;18.36;77.72;101862.94;5305712;28;20497;-76
2022/05/04 07:19:39;;;;;;;11.73;4.57;;;;;;;18.44;66.64;101860.22;5305876;28;20017;-76
2022/05/04 07:22:10;;;;;;;12.43;3.85;;;;;;;19.00;58.76;101861.16;5305879;28;20036;-76
2022/05/04 07:24:41;;;;;;;9.52;3.80;;;;;;;19.05;55.94;101856.09;5306177;28;20029;-76
2022/05/04 07:27:12;;;;;;;8.93;3.92;;;;;;;19.80;57.47;101860.16;5305638;28;20052;-76
2022/05/04 07:29:46;;;;;;;11.70;3.35;;;;;;;20.55;52.01;101853.16;5304456;28;20024;-76
2022/05/04 07:32:18;;;;;;;10.40;4.00;;;;;;;20.16;51.46;101854.19;5284545;28;20195;-76
2022/05/04 07:34:49;;;;;;;9.73;4.55;;;;;;;20.85;48.66;101852.38;5284616;28;20029;-76
2022/05/04 07:37:20;;;;;;;10.18;4.20;;;;;;;21.09;46.81;101845.81;5284502;28;20410;-76
2022/05/04 07:42:42;;;;;;;9.65;4.05;;;;;;;22.53;43.05;101853.25;5284620;28;20040;-76
2022/05/04 07:45:15;;;;;;;11.77;4.18;;;;;;;23.30;38.83;101848.72;5305413;28;20036;-76
2022/05/04 07:47:46;;;;;;;11.30;3.83;;;;;;;23.85;39.13;101857.75;5305576;28;20060;-76
2022/05/04 07:50:18;;;;;;;11.13;3.92;;;;;;;23.75;36.81;101860.00;5304567;28;20443;-76
2022/05/04 07:52:49;;;;;;;11.05;3.92;;;;;;;24.71;34.76;101856.13;5304284;28;20517;-76
2022/05/04 07:55:20;;;;;;;8.10;4.63;;;;;;;24.22;34.94;101857.38;5305532;28;20434;-76
2022/05/04 07:57:52;;;;;;;9.23;3.85;;;;;;;24.81;34.29;101864.72;5305118;28;20094;-76
2022/05/04 08:06:04;;;;;;;11.25;4.60;;;;;;;25.59;33.09;101857.56;5305666;28;20029;-76
2022/05/04 08:08:35;;;;;;;8.68;4.03;;;;;;;26.64;31.30;101870.72;5304974;28;20031;-77
2022/05/04 08:11:06;;;;;;;9.77;4.37;;;;;;;26.11;31.07;101863.78;5305719;28;20020;-77
2022/05/04 08:13:38;;;;;;;8.00;4.10;;;;;;;26.41;30.05;101868.59;5320708;28;20259;-77
2022/05/04 08:16:11;;;;;;;8.57;4.10;;;;;;;26.65;29.93;101857.88;5304399;28;29333;-76
2022/05/04 08:18:42;;;;;;;6.97;3.95;;;;;;;27.77;29.71;101863.09;5305057;28;20735;-77
2022/05/04 08:21:13;;;;;;;6.93;4.40;;;;;;;27.30;28.99;101863.72;5305210;28;20082;-77
2022/05/04 08:23:45;;;;;;;8.55;4.03;;;;;;;28.22;27.95;101848.91;5305492;28;20393;-77
2022/05/04 08:26:16;;;;;;;7.53;4.27;;;;;;;28.87;26.80;101858.16;5300708;28;20037;-77
2022/05/04 08:28:47;;;;;;;8.93;4.80;;;;;;;27.81;27.56;101861.56;5309502;28;20632;-76
2022/05/04 08:31:19;;;;;;;10.17;4.40;;;;;;;29.12;27.03;101866.13;5326912;28;20067;-76
2022/05/04 08:33:51;;;;;;;8.82;4.22;;;;;;;28.15;27.47;101864.66;5312961;28;20255;-77
2022/05/04 08:36:22;;;;;;;9.88;4.60;;;;;;;29.25;26.02;101861.47;5306352;28;20040;-76
2022/05/04 08:38:53;;;;;;;11.45;4.05;;;;;;;29.44;25.76;101853.88;5305864;28;20070;-77
2022/05/04 08:41:26;;;;;;;9.15;4.93;;;;;;;29.57;24.76;101859.88;5320968;28;20025;-77
2022/05/04 08:43:58;;;;;;;22.67;5.82;;;;;;;28.92;25.84;101862.91;5304489;28;20025;-77
2022/05/04 08:46:32;;;;;;;9.88;5.20;;;;;;;25.29;28.59;101861.66;5303934;28;20106;-76
2022/05/04 08:49:04;;;;;;;9.63;5.47;;;;;;;24.32;30.75;101858.66;5304736;28;20016;-76
2022/05/04 08:51:36;;;;;;;8.93;5.15;;;;;;;23.54;32.82;101850.91;5304588;28;20025;-77
2022/05/04 08:54:08;;;;;;;12.20;5.25;;;;;;;26.28;30.16;101849.53;5303071;28;20497;-76
2022/05/04 08:56:40;;;;;;;8.55;4.78;;;;;;;26.63;28.45;101849.91;5302612;28;20028;-77
2022/05/04 08:59:11;;;;;;;8.38;4.18;;;;;;;28.79;26.49;101853.03;5289297;28;20025;-77
2022/05/04 09:01:45;;;;;;;7.43;4.50;;;;;;;28.22;26.57;101859.06;5282405;28;20037;-77
2022/05/04 09:04:16;;;;;;;10.35;5.13;;;;;;;29.83;25.26;101843.91;5282958;28;20629;-77
2022/05/04 09:06:48;;;;;;;10.10;4.60;;;;;;;30.21;24.34;101858.88;5304269;28;20025;-77
2022/05/04 09:09:20;;;;;;;10.25;4.38;;;;;;;31.24;23.84;101852.09;5304815;28;20025;-76
2022/05/04 09:11:51;;;;;;;10.57;4.43;;;;;;;31.40;22.50;101855.88;5304082;28;20492;-77
2022/05/04 09:14:26;;;;;;;13.97;5.13;;;;;;;31.87;22.26;101846.19;5300983;28;20040;-77
2022/05/04 09:16:57;;;;;;;7.07;3.93;;;;;;;32.88;21.67;101845.31;5315704;28;20345;-77
2022/05/04 09:19:28;;;;;;;9.77;4.47;;;;;;;32.79;21.64;101846.91;5315028;28;20020;-77
2022/05/04 09:21:59;;;;;;;9.90;4.50;;;;;;;32.38;21.63;101843.84;5316636;27;20033;-77
2022/05/04 09:24:31;;;;;;;8.23;4.43;;;;;;;32.62;20.65;101837.97;5304427;27;20634;-77
2022/05/04 09:27:04;;;;;;;7.93;4.20;;;;;;;30.17;22.84;101836.53;5301857;28;20574;-77
2022/05/04 09:29:37;;;;;;;8.95;4.20;;;;;;;31.21;22.51;101836.94;5314380;27;20119;-77
2022/05/04 09:32:15;;;;;;;11.45;5.10;;;;;;;31.23;23.29;101833.91;5312206;27;20037;-77
2022/05/04 09:34:47;;;;;;;16.10;5.15;;;;;;;32.45;21.59;101824.31;5296949;28;20362;-77
2022/05/04 09:45:54;;;;;;;9.90;5.22;;;;;;;33.83;20.34;101829.59;5302434;28;20040;-77
2022/05/04 09:48:31;;;;;;;18.23;5.30;;;;;;;34.43;19.91;101822.38;5294936;28;20111;-78
2022/05/04 09:51:04;;;;;;;7.93;4.85;;;;;;;35.38;18.53;101830.88;5306425;28;20025;-78
2022/05/04 09:53:36;;;;;;;7.57;4.47;;;;;;;35.26;18.46;101828.47;5302818;28;20498;-78
2022/05/04 09:56:09;;;;;;;8.82;5.00;;;;;;;34.37;18.65;101826.25;5302616;28;20408;-78
2022/05/04 09:58:40;;;;;;;7.72;4.75;;;;;;;35.00;18.61;101820.25;5306233;28;20374;-78
2022/05/04 10:01:12;;;;;;;11.07;4.38;;;;;;;34.69;18.98;101813.16;5303017;28;20032;-78
2022/05/04 10:03:44;;;;;;;11.13;5.00;;;;;;;35.44;18.31;101817.84;5302063;28;20024;-78
2022/05/04 10:06:15;;;;;;;17.88;5.47;;;;;;;36.01;18.11;101824.66;5302524;28;20031;-77
2022/05/04 10:08:47;;;;;;;7.90;4.70;;;;;;;34.77;18.46;101821.75;5303501;28;20466;-78
2022/05/04 10:11:20;;;;;;;8.50;4.20;;;;;;;34.92;18.09;101817.25;5302233;28;20031;-78
2022/05/04 10:13:53;;;;;;;8.90;4.85;;;;;;;34.99;18.70;101820.53;5283330;28;20341;-78
2022/05/04 10:16:26;;;;;;;10.73;4.78;;;;;;;35.57;18.20;101818.03;5303900;27;20103;-77
2022/05/04 10:19:01;;;;;;;6.95;3.70;;;;;;;36.32;17.10;101816.84;5299185;28;20056;-77
2022/05/04 10:21:34;;;;;;;9.73;3.95;;;;;;;36.25;17.00;101816.38;5298950;28;20043;-77
2022/05/04 10:24:07;;;;;;;9.80;4.20;;;;;;;36.61;16.80;101816.00;5301834;28;20027;-76
2022/05/04 10:26:39;;;;;;;7.00;4.30;;;;;;;36.24;16.74;101808.34;5302640;28;20041;-77
2022/05/04 10:32:47;;;;;;;6.53;4.13;;;;;;;39.77;15.92;101808.97;5302437;28;20028;-76
2022/05/04 10:35:38;;;;;;;5.75;4.20;;;;;;;38.99;16.30;101805.47;5300904;28;20166;-77
2022/05/04 10:38:28;;;;;;;8.43;4.43;;;;;;;37.55;16.75;101811.69;5301090;28;20111;-76
2022/05/04 10:41:02;;;;;;;10.63;4.60;;;;;;;36.68;16.45;101805.38;5302538;28;20098;-78
2022/05/04 10:43:45;;;;;;;9.25;4.90;;;;;;;37.06;16.88;101801.81;5301816;28;20024;-77
2022/05/04 10:46:22;;;;;;;8.18;5.05;;;;;;;36.81;17.16;101797.44;5301030;28;20035;-77
2022/05/04 10:48:53;;;;;;;16.90;5.65;;;;;;;34.78;17.36;101805.94;5301291;28;20450;-77
2022/05/04 10:51:30;;;;;;;8.33;4.70;;;;;;;36.54;17.66;101801.63;5302682;28;20060;-77
2022/05/04 10:54:09;;;;;;;6.22;3.72;;;;;;;37.78;16.89;101801.63;5301055;28;20035;-77
2022/05/04 10:56:46;;;;;;;8.93;4.30;;;;;;;37.73;15.58;101796.16;5281183;28;20021;-77
2022/05/04 10:59:32;;;;;;;9.52;4.75;;;;;;;38.68;16.07;101790.22;5280760;28;20033;-77
2022/05/04 11:02:09;;;;;;;7.93;4.60;;;;;;;37.87;16.42;101792.56;5280250;28;20036;-77
2022/05/04 11:04:40;;;;;;;11.45;5.20;;;;;;;38.59;15.33;101786.53;5281011;28;20021;-76
2022/05/04 11:07:12;;;;;;;6.57;4.90;;;;;;;37.08;15.48;101786.50;5281168;28;20028;-77
2022/05/04 11:09:43;;;;;;;8.32;5.18;;;;;;;38.39;16.27;101788.53;5302405;28;20128;-77
2022/05/04 11:12:17;;;;;;;7.88;4.53;;;;;;;39.50;15.14;101788.44;5300498;28;20112;-77
2022/05/04 11:14:49;;;;;;;11.45;4.60;;;;;;;38.33;15.90;101789.78;5300388;28;20466;-76
2022/05/04 11:17:21;;;;;;;9.48;5.30;;;;;;;37.34;15.49;101772.25;5301901;28;20150;-75
2022/05/04 11:19:52;;;;;;;10.48;5.22;;;;;;;37.30;16.26;101776.75;5302622;28;20376;-75
2022/05/04 11:22:23;;;;;;;8.00;4.77;;;;;;;37.94;15.51;101774.34;5302684;28;20029;-77
2022/05/04 11:24:57;;;;;;;9.95;5.07;;;;;;;37.86;15.60;101761.13;5302835;28;20318;-75
2022/05/04 11:27:28;;;;;;;11.00;5.63;;;;;;;39.63;14.51;101757.97;5303449;28;20139;-76
2022/05/04 11:30:04;;;;;;;6.90;4.63;;;;;;;40.16;14.65;101770.25;5302827;28;20412;-77
2022/05/04 11:32:39;;;;;;;14.70;5.30;;;;;;;39.98;15.25;101774.94;5288341;28;20105;-75
2022/05/04 11:35:14;;;;;;;7.50;5.20;;;;;;;39.31;15.05;101771.81;5304953;28;20293;-75
2022/05/04 11:37:45;;;;;;;8.98;4.68;;;;;;;39.19;14.50;101767.97;5304930;28;20031;-75
2022/05/04 11:40:17;;;;;;;11.40;5.67;;;;;;;37.94;16.03;101752.06;5305525;28;20013;-75
2022/05/04 11:42:49;;;;;;;7.45;4.32;;;;;;;38.92;15.26;101759.31;5305304;28;20021;-75
2022/05/04 11:45:20;;;;;;;8.50;4.45;;;;;;;38.13;15.50;101768.75;5304978;28;20112;-76
2022/05/04 11:47:52;;;;;;;11.52;6.32;;;;;;;36.84;15.64;101753.19;5304911;28;20074;-76
2022/05/04 11:50:23;;;;;;;9.55;4.95;;;;;;;39.02;15.31;101754.66;5305337;28;20091;-75
2022/05/04 11:52:54;;;;;;;9.80;5.18;;;;;;;39.51;14.84;101759.34;5305426;28;20068;-76
2022/05/04 11:55:25;;;;;;;8.47;5.07;;;;;;;38.90;14.75;101750.41;5304069;28;34521;-76
2022/05/04 11:57:59;;;;;;;10.43;5.50;;;;;;;38.45;14.83;101750.28;5303291;28;20324;-76
2022/05/04 12:00:30;;;;;;;9.18;5.25;;;;;;;38.43;15.17;101732.19;5305163;28;20024;-76
2022/05/04 12:03:05;;;;;;;9.25;4.70;;;;;;;40.05;14.43;101739.00;5305027;28;20070;-76
2022/05/04 12:05:38;;;;;;;8.27;4.88;;;;;;;39.38;14.19;101742.66;5305557;28;20028;-76
2022/05/04 12:08:10;;;;;;;7.00;4.60;;;;;;;40.10;13.90;101741.66;5304226;28;20125;-76
2022/05/04 12:10:42;;;;;;;17.10;5.72;;;;;;;39.10;15.11;101732.44;5284924;28;20103;-76
2022/05/04 12:13:15;;;;;;;7.68;4.40;;;;;;;39.82;13.87;101730.66;5283390;28;20365;-76